Time;durP1;ratioP1;P1;durP2;ratioP2;P2;SDS_P1;SDS_P2;PMS_P1;PMS_P2;Temp;Humidity;BMP_temperature;BMP_pressure;BME280_temperature;BME280_humidity;BME280_pressure;Samples;Min_cycle;Max_cycle;Signal;HPM_P1;HPM_P2
2023/01/07 00:01:16;;;;;;;49.05;28.87;;;;;;;3.03;92.96;100930.45;1759818;80;27516;-78
2023/01/07 00:03:43;;;;;;;54.35;30.40;;;;;;;3.07;93.15;100925.25;1761547;79;25983;-78
2023/01/07 00:06:21;;;;;;;48.45;27.87;;;;;;;3.08;93.17;100931.72;1762726;79;26061;-78
2023/01/07 00:08:50;;;;;;;44.58;27.17;;;;;;;3.07;92.92;100937.16;1774331;79;26575;-78
2023/01/07 00:11:20;;;;;;;47.45;26.70;;;;;;;3.02;93.00;100932.73;1761553;79;25571;-78
2023/01/07 00:13:51;;;;;;;41.73;25.20;;;;;;;3.01;93.01;100931.06;1792317;79;27459;-78
2023/01/07 00:16:23;;;;;;;40.65;25.05;;;;;;;2.99;92.96;100940.44;1773484;80;26330;-78
2023/01/07 00:18:51;;;;;;;45.58;24.87;;;;;;;3.00;93.06;100939.95;1753012;80;25781;-78
2023/01/07 00:21:20;;;;;;;46.40;26.95;;;;;;;3.00;92.94;100927.58;1762161;80;25832;-78
2023/01/07 00:23:47;;;;;;;43.10;26.85;;;;;;;3.01;92.91;100928.42;1755990;80;26416;-77
2023/01/07 00:26:17;;;;;;;52.20;30.00;;;;;;;3.01;92.98;100927.94;1783406;79;27698;-78
2023/01/07 00:28:46;;;;;;;55.03;30.93;;;;;;;3.01;93.12;100948.27;1785511;79;26519;-78
2023/01/07 00:31:21;;;;;;;57.30;34.50;;;;;;;3.03;93.30;100943.68;1830703;77;26320;-78
2023/01/07 00:34:05;;;;;;;62.15;33.60;;;;;;;3.03;93.49;100961.73;1804099;77;25993;-78
2023/01/07 00:36:19;;;;;;;59.05;32.23;;;;;;;3.02;93.60;100960.03;1815535;77;25532;-78
2023/01/07 00:38:46;;;;;;;69.95;36.95;;;;;;;3.01;93.78;100957.05;1813762;78;28716;-78
2023/01/07 00:41:12;;;;;;;72.75;35.13;;;;;;;3.02;94.04;100956.06;1804087;78;26071;-78
2023/01/07 00:43:39;;;;;;;69.40;36.20;;;;;;;3.03;94.37;100956.44;1807964;77;26286;-78
2023/01/07 00:46:06;;;;;;;81.30;38.48;;;;;;;3.06;94.73;100958.80;1812427;77;25950;-78
2023/01/07 00:48:34;;;;;;;76.80;39.10;;;;;;;3.08;94.97;100952.89;1819313;77;25937;-78
2023/01/07 00:51:00;;;;;;;68.28;38.08;;;;;;;3.11;95.21;100954.45;1804597;77;27457;-78
2023/01/07 00:53:29;;;;;;;81.37;40.08;;;;;;;3.13;95.38;100948.53;1807160;77;25802;-78
2023/01/07 00:55:55;;;;;;;81.53;40.70;;;;;;;3.16;95.58;100949.61;1821989;77;26044;-78
2023/01/07 00:58:24;;;;;;;72.95;37.40;;;;;;;3.19;95.63;100955.14;1825924;77;25752;-78
2023/01/07 01:00:56;;;;;;;72.35;35.68;;;;;;;3.23;95.71;100956.04;1816256;77;25278;-78
2023/01/07 01:03:24;;;;;;;65.25;35.10;;;;;;;3.25;95.81;100958.06;1827380;77;27436;-78
2023/01/07 01:05:51;;;;;;;74.27;37.17;;;;;;;3.28;95.98;100955.17;1831440;77;25813;-78
2023/01/07 01:08:17;;;;;;;64.65;32.60;;;;;;;3.30;96.11;100953.70;1808875;77;25961;-78
2023/01/07 01:10:44;;;;;;;67.67;35.10;;;;;;;3.32;96.33;100954.41;1819126;77;25761;-78
2023/01/07 01:13:16;;;;;;;66.47;33.95;;;;;;;3.34;96.47;100957.28;1818661;77;25585;-79
2023/01/07 01:15:44;;;;;;;60.50;34.73;;;;;;;3.38;96.52;100956.56;1822001;77;28269;-79
2023/01/07 01:18:12;;;;;;;57.15;32.33;;;;;;;3.41;96.61;100964.22;1771869;78;26440;-78
2023/01/07 01:20:39;;;;;;;62.48;31.48;;;;;;;3.44;96.63;100967.94;1775679;79;25736;-78
2023/01/07 01:23:06;;;;;;;56.88;31.10;;;;;;;3.45;96.66;100964.30;1766030;79;26540;-78
2023/01/07 01:25:32;;;;;;;59.20;32.65;;;;;;;3.45;96.72;100962.50;1777787;79;25864;-78
2023/01/07 01:27:58;;;;;;;63.38;30.88;;;;;;;3.46;96.80;100964.67;1769010;79;27610;-78
2023/01/07 01:30:25;;;;;;;52.13;28.40;;;;;;;3.48;96.84;100963.58;1812678;77;26541;-78
2023/01/07 01:32:52;;;;;;;57.10;30.68;;;;;;;3.50;96.88;100970.05;1804839;77;26394;-78
2023/01/07 01:35:19;;;;;;;54.27;30.70;;;;;;;3.53;97.00;100971.12;1822434;77;25851;-79
2023/01/07 01:37:45;;;;;;;52.98;29.92;;;;;;;3.56;96.98;100962.41;1843697;77;26298;-78
2023/01/07 01:40:12;;;;;;;63.83;31.70;;;;;;;3.60;96.93;100974.42;1815808;77;28302;-78
2023/01/07 01:42:38;;;;;;;56.10;30.02;;;;;;;3.63;96.74;100978.14;1827578;77;25980;-78
2023/01/07 01:45:06;;;;;;;57.08;30.97;;;;;;;3.64;96.61;100978.47;1811073;77;25900;-78
2023/01/07 01:47:46;;;;;;;56.08;31.42;;;;;;;3.66;96.48;100980.50;1827068;77;26507;-78
2023/01/07 01:50:33;;;;;;;52.33;30.05;;;;;;;3.67;96.36;100978.22;1817562;77;25289;-78
2023/01/07 01:53:10;;;;;;;55.88;30.25;;;;;;;3.68;96.30;100981.20;1813202;77;27477;-78
2023/01/07 01:55:44;;;;;;;51.37;30.57;;;;;;;3.68;96.17;100977.23;1817573;77;25911;-78
2023/01/07 01:58:15;;;;;;;52.65;31.48;;;;;;;3.68;96.01;100973.73;1818218;77;25767;-78
2023/01/07 02:00:42;;;;;;;57.40;30.57;;;;;;;3.69;95.98;100974.11;1806585;77;27022;-78
2023/01/07 02:03:14;;;;;;;53.92;31.27;;;;;;;3.71;95.99;100974.81;1819095;77;25906;-77
2023/01/07 02:05:41;;;;;;;50.90;30.05;;;;;;;3.72;95.80;100975.98;1803140;77;27455;-78
2023/01/07 02:08:08;;;;;;;53.35;31.57;;;;;;;3.72;95.73;100965.39;1827770;77;26135;-78
2023/01/07 02:10:37;;;;;;;51.20;29.37;;;;;;;3.73;95.55;100952.99;1813982;77;25679;-78
2023/01/07 02:13:37;;;;;;;53.85;29.77;;;;;;;3.73;95.52;100956.48;1829945;77;25769;-78
2023/01/07 02:16:15;;;;;;;51.28;28.17;;;;;;;3.74;95.49;100958.14;1794593;78;26429;-78
2023/01/07 02:19:12;;;;;;;52.98;30.77;;;;;;;3.74;95.44;100956.01;1831992;77;28250;-78
2023/01/07 02:21:57;;;;;;;44.75;27.00;;;;;;;3.75;95.45;100945.27;1807016;77;25783;-78
2023/01/07 02:24:49;;;;;;;45.55;27.07;;;;;;;3.75;95.37;100951.89;1812596;77;25750;-78
2023/01/07 02:27:30;;;;;;;42.00;26.17;;;;;;;3.76;95.52;100958.03;1784199;77;25927;-78
2023/01/07 02:30:28;;;;;;;46.35;26.12;;;;;;;3.76;95.36;100952.22;1809656;77;26003;-78
2023/01/07 02:33:32;;;;;;;46.40;25.77;;;;;;;3.75;95.34;100948.39;1824679;77;28288;-77
2023/01/07 02:36:07;;;;;;;42.27;24.98;;;;;;;3.74;95.42;100950.20;1818574;77;25794;-77
2023/01/07 02:38:49;;;;;;;42.83;24.92;;;;;;;3.75;95.63;100949.72;1838218;77;25790;-77
2023/01/07 02:41:34;;;;;;;42.05;25.27;;;;;;;3.75;95.57;100947.92;1808960;77;26590;-78
2023/01/07 02:44:30;;;;;;;45.35;25.88;;;;;;;3.76;95.49;100945.60;1789268;78;25872;-77
2023/01/07 02:47:21;;;;;;;45.00;26.02;;;;;;;3.77;95.44;100954.40;1828650;77;27439;-77
2023/01/07 02:49:48;;;;;;;44.15;25.50;;;;;;;3.76;95.64;100950.91;1803868;78;26691;-77
2023/01/07 02:52:24;;;;;;;44.95;24.98;;;;;;;3.77;95.56;100957.05;1828533;77;25786;-77
2023/01/07 02:54:58;;;;;;;46.88;27.17;;;;;;;3.79;95.50;100957.75;1805578;78;27032;-77
2023/01/07 02:57:56;;;;;;;41.75;26.07;;;;;;;3.79;95.75;100957.75;1819435;77;25783;-77
2023/01/07 03:01:16;;;;;;;44.90;25.45;;;;;;;3.81;95.95;100955.80;1796636;78;27708;-77
2023/01/07 03:04:11;;;;;;;38.50;24.60;;;;;;;3.82;96.20;100964.12;1778061;80;25753;-79
2023/01/07 03:06:46;;;;;;;40.52;23.95;;;;;;;3.84;96.42;100960.36;1778778;80;25856;-79
2023/01/07 03:09:24;;;;;;;37.00;22.10;;;;;;;3.87;96.46;100957.42;1812685;77;26560;-80
2023/01/07 03:12:02;;;;;;;36.83;22.00;;;;;;;3.89;96.34;100954.66;1822582;77;26446;-80
2023/01/07 03:14:42;;;;;;;39.38;23.22;;;;;;;3.90;96.45;100955.00;1791521;77;27456;-80
2023/01/07 03:17:14;;;;;;;32.63;20.75;;;;;;;3.93;96.53;100961.36;1830004;77;25950;-80
2023/01/07 03:19:45;;;;;;;41.05;22.27;;;;;;;3.93;96.56;100962.18;1821369;77;25695;-77
2023/01/07 03:22:14;;;;;;;33.78;19.55;;;;;;;3.96;96.76;100964.23;1777991;79;26025;-77
2023/01/07 03:24:45;;;;;;;42.83;30.20;;;;;;;3.98;97.02;100966.27;1842284;77;25901;-78
2023/01/07 03:27:13;;;;;;;37.90;24.63;;;;;;;4.01;97.25;100960.20;1830699;77;27434;-78
2023/01/07 03:29:40;;;;;;;34.50;19.48;;;;;;;4.05;97.21;100960.75;1831025;77;25758;-77
2023/01/07 03:32:15;;;;;;;31.85;18.80;;;;;;;4.04;97.09;100962.59;1831350;77;26712;-77
2023/01/07 03:34:43;;;;;;;31.87;18.92;;;;;;;4.03;97.05;100960.89;1829548;77;25735;-77
2023/01/07 03:37:17;;;;;;;29.12;18.92;;;;;;;4.07;97.10;100964.95;1825345;77;25734;-77
2023/01/07 03:39:45;;;;;;;29.05;19.00;;;;;;;4.08;97.04;100964.47;1825330;77;27507;-77
2023/01/07 03:44:59;;;;;;;31.57;19.20;;;;;;;4.07;96.24;100962.30;1820349;76;25848;-77
2023/01/07 03:47:28;;;;;;;30.88;18.80;;;;;;;4.05;96.02;100963.40;1811020;77;25775;-78
2023/01/07 03:49:55;;;;;;;31.40;20.17;;;;;;;4.06;95.92;100958.47;1821741;77;25910;-77
2023/01/07 03:52:22;;;;;;;27.73;18.40;;;;;;;4.07;95.99;100962.30;1809636;77;27450;-77
2023/01/07 03:54:48;;;;;;;31.23;19.12;;;;;;;4.10;96.01;100965.16;1808345;77;26360;-77
2023/01/07 03:57:15;;;;;;;27.93;17.17;;;;;;;4.10;95.99;100961.19;1824584;77;25805;-77
2023/01/07 03:59:41;;;;;;;29.55;18.90;;;;;;;4.12;96.00;100969.84;1823250;77;26371;-78
2023/01/07 04:02:08;;;;;;;30.25;18.45;;;;;;;4.12;95.80;100975.98;1826975;77;25854;-77
2023/01/07 04:04:34;;;;;;;31.02;18.05;;;;;;;4.11;95.95;100966.34;1836355;77;26868;-78
2023/01/07 04:07:01;;;;;;;25.35;16.70;;;;;;;4.13;96.04;100961.74;1818829;77;25776;-80
2023/01/07 04:09:27;;;;;;;25.70;17.80;;;;;;;4.15;95.92;100958.47;1824037;77;26128;-77
2023/01/07 04:11:56;;;;;;;27.02;17.37;;;;;;;4.15;95.84;100970.39;1828324;77;43738;-77
2023/01/07 04:14:22;;;;;;;28.52;18.17;;;;;;;4.15;95.79;100967.75;1821694;77;25818;-78
2023/01/07 04:16:53;;;;;;;27.40;18.17;;;;;;;4.17;95.73;100975.58;1818051;77;28290;-77
2023/01/07 04:19:17;;;;;;;29.95;17.70;;;;;;;4.18;95.57;100970.62;1777448;79;26238;-77
2023/01/07 04:21:43;;;;;;;25.97;17.20;;;;;;;4.18;95.50;100974.59;1806127;77;25779;-77
2023/01/07 04:24:10;;;;;;;24.35;14.87;;;;;;;4.19;95.54;100983.73;1819753;77;26132;-77
2023/01/07 04:26:36;;;;;;;22.55;15.63;;;;;;;4.20;95.49;100974.81;1828505;77;25867;-77
2023/01/07 04:29:02;;;;;;;27.98;16.93;;;;;;;4.21;95.53;100969.88;1820037;77;28236;-77
2023/01/07 04:31:29;;;;;;;25.15;14.90;;;;;;;4.22;95.54;100967.55;1819145;77;25763;-78
2023/01/07 04:33:57;;;;;;;25.43;16.17;;;;;;;4.24;95.55;100968.73;1817676;77;26397;-77
2023/01/07 04:36:24;;;;;;;24.90;16.05;;;;;;;4.24;95.57;100974.04;1842939;77;26096;-77
2023/01/07 04:38:51;;;;;;;27.52;15.90;;;;;;;4.24;95.75;100975.36;1826049;77;26470;-78
2023/01/07 04:41:17;;;;;;;30.70;18.48;;;;;;;4.25;95.96;100977.05;1827433;77;27458;-78
2023/01/07 04:43:44;;;;;;;30.05;17.70;;;;;;;4.27;96.14;100980.41;1820414;77;25769;-78
2023/01/07 04:46:10;;;;;;;30.65;18.77;;;;;;;4.29;96.37;100977.13;1819176;77;25815;-78
2023/01/07 04:48:37;;;;;;;34.38;18.80;;;;;;;4.29;96.51;100988.58;1822084;77;25830;-78
2023/01/07 04:51:04;;;;;;;31.07;19.37;;;;;;;4.29;96.75;100987.73;1826687;77;25959;-78
2023/01/07 04:53:31;;;;;;;30.23;18.73;;;;;;;4.30;96.83;100996.87;1815781;77;27418;-78
2023/01/07 04:55:58;;;;;;;28.87;17.55;;;;;;;4.31;96.85;100999.05;1793003;77;26373;-78
2023/01/07 04:58:25;;;;;;;30.48;18.37;;;;;;;4.31;96.94;100995.91;1808922;77;26410;-78
2023/01/07 05:00:54;;;;;;;31.05;18.25;;;;;;;4.31;97.11;100995.91;1816013;77;27081;-78
2023/01/07 05:03:20;;;;;;;30.70;18.37;;;;;;;4.32;97.29;101000.73;1829640;77;26431;-78
2023/01/07 05:05:47;;;;;;;30.30;18.17;;;;;;;4.33;97.49;101000.59;1811861;77;27454;-78
2023/01/07 05:08:14;;;;;;;32.10;18.55;;;;;;;4.34;97.64;101009.39;1774257;79;25817;-78
2023/01/07 05:10:40;;;;;;;31.75;18.20;;;;;;;4.34;97.85;101004.09;1776962;80;25760;-78
2023/01/07 05:13:07;;;;;;;30.97;18.77;;;;;;;4.35;98.10;101009.24;1787161;78;25842;-78
2023/01/07 05:15:34;;;;;;;33.78;19.65;;;;;;;4.37;98.18;100999.81;1744059;81;26491;-78
2023/01/07 05:18:00;;;;;;;31.02;20.60;;;;;;;4.37;98.33;100995.84;1816270;77;27452;-78
2023/01/07 05:20:27;;;;;;;36.33;20.12;;;;;;;4.38;98.46;100997.05;1808569;77;26425;-78
2023/01/07 05:22:54;;;;;;;33.58;19.73;;;;;;;4.39;98.58;100999.19;1813452;77;26548;-78
2023/01/07 05:25:20;;;;;;;28.32;18.87;;;;;;;4.40;98.62;100999.55;1812965;77;25827;-78
2023/01/07 05:27:47;;;;;;;33.38;18.75;;;;;;;4.40;98.76;101000.40;1822563;77;26224;-78
2023/01/07 05:30:14;;;;;;;29.55;18.73;;;;;;;4.40;98.94;101007.03;1817574;77;27446;-77
2023/01/07 05:32:41;;;;;;;31.42;18.90;;;;;;;4.43;99.15;101003.23;1826008;77;26431;-78
2023/01/07 05:35:09;;;;;;;33.18;17.80;;;;;;;4.45;99.28;101005.27;1805007;77;25759;-78
2023/01/07 05:37:35;;;;;;;30.68;20.15;;;;;;;4.46;99.47;101003.82;1804152;78;25863;-78
2023/01/07 05:40:03;;;;;;;33.02;22.42;;;;;;;4.47;99.65;101003.34;1808318;77;25786;-78
2023/01/07 05:42:30;;;;;;;31.57;21.05;;;;;;;4.49;99.91;101010.67;1812891;77;27440;-78
2023/01/07 05:44:56;;;;;;;43.75;29.70;;;;;;;4.52;99.98;101015.20;1811105;77;26451;-78
2023/01/07 05:47:22;;;;;;;44.70;31.00;;;;;;;4.55;100.00;101018.07;1829196;77;25755;-78
2023/01/07 05:49:49;;;;;;;46.37;30.90;;;;;;;4.57;100.00;101019.62;1815269;77;25918;-78
2023/01/07 05:52:15;;;;;;;41.92;26.65;;;;;;;4.58;100.00;101018.62;1817964;77;25731;-78
2023/01/07 05:54:41;;;;;;;38.00;21.52;;;;;;;4.60;100.00;101006.53;1813987;77;28741;-78
2023/01/07 05:57:08;;;;;;;32.30;20.17;;;;;;;4.63;100.00;101003.14;1822538;77;25764;-78
2023/01/07 05:59:34;;;;;;;39.63;23.50;;;;;;;4.66;100.00;101006.01;1803205;77;25775;-78
2023/01/07 06:02:01;;;;;;;41.10;22.05;;;;;;;4.68;100.00;101006.70;1817453;77;26688;-78
2023/01/07 06:04:28;;;;;;;38.55;23.22;;;;;;;4.71;100.00;101010.39;1820422;77;26686;-78
2023/01/07 06:06:54;;;;;;;41.10;23.52;;;;;;;4.71;100.00;101005.08;1837183;77;27462;-78
2023/01/07 06:09:21;;;;;;;34.95;21.20;;;;;;;4.72;100.00;101010.75;1825775;77;25981;-78
2023/01/07 06:11:47;;;;;;;39.30;21.65;;;;;;;4.74;100.00;101009.28;1811391;77;25761;-78
2023/01/07 06:14:14;;;;;;;36.63;20.80;;;;;;;4.76;100.00;101009.98;1805670;77;25836;-78
2023/01/07 06:16:40;;;;;;;41.88;21.95;;;;;;;4.76;100.00;101013.48;1810729;77;25775;-78
2023/01/07 06:19:06;;;;;;;39.27;21.70;;;;;;;4.77;100.00;101017.79;1820656;77;28913;-78
2023/01/07 06:21:33;;;;;;;40.73;21.12;;;;;;;4.80;100.00;101016.67;1821337;77;25734;-78
2023/01/07 06:23:59;;;;;;;42.08;22.50;;;;;;;4.81;100.00;101025.00;1825440;77;26159;-78
2023/01/07 06:26:25;;;;;;;37.00;22.35;;;;;;;4.82;100.00;101025.34;1817906;77;26556;-78
2023/01/07 06:28:51;;;;;;;43.98;24.47;;;;;;;4.83;100.00;101029.20;1819543;77;25802;-78
2023/01/07 06:31:18;;;;;;;45.98;24.18;;;;;;;4.86;100.00;101032.03;1819574;77;27452;-78
2023/01/07 06:33:44;;;;;;;44.35;25.25;;;;;;;4.87;100.00;101033.73;1816324;77;25895;-79
2023/01/07 06:36:11;;;;;;;50.17;29.12;;;;;;;4.88;100.00;101052.64;1815665;77;25744;-78
2023/01/07 06:38:37;;;;;;;53.60;30.62;;;;;;;4.88;100.00;101044.20;1793678;78;26464;-78
2023/01/07 06:41:04;;;;;;;52.62;28.30;;;;;;;4.91;100.00;101047.06;1821415;77;26247;-78
2023/01/07 06:43:30;;;;;;;44.58;24.70;;;;;;;4.93;100.00;101052.59;1820981;77;27413;-78
2023/01/07 06:45:56;;;;;;;46.45;23.87;;;;;;;4.97;100.00;101051.81;1811203;77;25760;-78
2023/01/07 06:48:22;;;;;;;49.70;24.85;;;;;;;4.98;100.00;101054.35;1804994;77;25719;-78
2023/01/07 06:50:49;;;;;;;52.27;27.82;;;;;;;4.98;100.00;101054.35;1794480;77;26542;-78
2023/01/07 06:53:15;;;;;;;48.30;27.50;;;;;;;4.99;100.00;101061.31;1793712;78;26469;-78
2023/01/07 06:55:48;;;;;;;46.45;24.60;;;;;;;4.98;100.00;101060.98;1795857;77;27468;-77
2023/01/07 06:58:16;;;;;;;49.53;25.35;;;;;;;5.01;100.00;101062.02;1835747;77;26375;-78
2023/01/07 07:00:42;;;;;;;52.80;27.45;;;;;;;5.03;100.00;101068.50;1824735;77;25925;-78
2023/01/07 07:03:08;;;;;;;50.12;26.00;;;;;;;5.05;100.00;101074.03;1826622;77;26536;-78
2023/01/07 07:05:35;;;;;;;49.13;25.80;;;;;;;5.09;100.00;101073.28;1828457;77;25730;-78
2023/01/07 07:08:02;;;;;;;50.60;26.33;;;;;;;5.11;100.00;101068.16;1825355;77;27458;-78
2023/01/07 07:10:29;;;;;;;50.03;25.88;;;;;;;5.14;100.00;101070.55;1817563;77;25298;-78
2023/01/07 07:12:55;;;;;;;49.88;26.15;;;;;;;5.13;100.00;101066.70;1823006;77;25855;-78
2023/01/07 07:15:21;;;;;;;53.00;27.37;;;;;;;5.14;100.00;101085.63;1828897;77;27018;-78
2023/01/07 07:17:48;;;;;;;54.08;27.98;;;;;;;5.13;100.00;101078.14;1825094;77;26547;-78
2023/01/07 07:20:14;;;;;;;67.60;39.08;;;;;;;5.13;100.00;101078.14;1816205;77;27447;-78
2023/01/07 07:22:45;;;;;;;64.32;36.85;;;;;;;5.12;100.00;101091.09;1822796;77;25778;-78
2023/01/07 07:25:12;;;;;;;55.50;30.72;;;;;;;5.15;100.00;101096.61;1823374;77;25553;-77
2023/01/07 07:27:38;;;;;;;53.00;30.08;;;;;;;5.15;100.00;101112.55;1833085;77;25813;-78
2023/01/07 07:30:07;;;;;;;52.88;31.65;;;;;;;5.15;100.00;101103.25;1830473;77;26485;-78
2023/01/07 07:32:33;;;;;;;54.98;30.23;;;;;;;5.13;100.00;101106.02;1816093;77;28269;-78
2023/01/07 07:35:00;;;;;;;59.55;35.70;;;;;;;5.14;100.00;101093.59;1812712;77;26415;-78
2023/01/07 07:37:26;;;;;;;68.47;41.63;;;;;;;5.15;100.00;101097.94;1820272;77;25936;-78
2023/01/07 07:39:52;;;;;;;65.78;32.65;;;;;;;5.16;100.00;101100.45;1819661;77;27185;-78
2023/01/07 07:42:18;;;;;;;65.17;33.90;;;;;;;5.14;100.00;101105.06;1815991;78;26216;-77
2023/01/07 07:44:45;;;;;;;57.25;32.17;;;;;;;5.15;100.00;101102.77;1815166;78;27438;-78
2023/01/07 07:47:11;;;;;;;62.55;34.23;;;;;;;5.16;100.00;101111.07;1824732;77;25933;-78
2023/01/07 07:49:37;;;;;;;56.50;31.93;;;;;;;5.18;100.00;101105.61;1836262;77;26124;-78
2023/01/07 07:52:04;;;;;;;58.40;32.17;;;;;;;5.19;100.00;101109.48;1825649;77;25900;-78
2023/01/07 07:54:30;;;;;;;57.03;31.27;;;;;;;5.23;100.00;101105.56;1820495;77;25779;-78
2023/01/07 07:56:57;;;;;;;60.58;32.78;;;;;;;5.27;100.00;101109.61;1824737;77;27442;-78
2023/01/07 07:59:24;;;;;;;56.50;31.33;;;;;;;5.32;100.00;101113.17;1825312;77;26536;-78
2023/01/07 08:01:50;;;;;;;53.68;30.48;;;;;;;5.35;100.00;101117.70;1821001;77;26033;-78
2023/01/07 08:04:17;;;;;;;58.83;31.52;;;;;;;5.39;100.00;101110.28;1825660;77;25807;-78
2023/01/07 08:06:43;;;;;;;63.63;32.40;;;;;;;5.42;100.00;101112.19;1824701;77;25738;-78
2023/01/07 08:09:09;;;;;;;60.43;33.95;;;;;;;5.47;100.00;101105.94;1791108;79;28282;-78
2023/01/07 08:11:35;;;;;;;59.90;33.88;;;;;;;5.52;100.00;101107.36;1785578;79;25735;-78
2023/01/07 08:14:02;;;;;;;57.67;32.75;;;;;;;5.56;100.00;101106.91;1773472;79;25329;-88
2023/01/07 08:16:28;;;;;;;59.55;34.48;;;;;;;5.59;100.00;101105.30;1784170;79;26282;-88
2023/01/07 08:18:54;;;;;;;53.75;29.98;;;;;;;5.62;100.00;101105.52;1744552;80;25860;-87
2023/01/07 08:21:21;;;;;;;62.35;31.65;;;;;;;5.64;100.00;101112.86;1776674;79;27425;-88
2023/01/07 08:23:47;;;;;;;63.55;34.75;;;;;;;5.64;100.00;101115.03;1772553;79;25853;-89
2023/01/07 08:26:13;;;;;;;52.93;31.50;;;;;;;5.65;100.00;101115.84;1773318;79;26431;-89
2023/01/07 08:28:39;;;;;;;67.58;35.88;;;;;;;5.66;100.00;101109.56;1770724;79;25859;-85
2023/01/07 08:31:07;;;;;;;67.58;38.90;;;;;;;5.66;100.00;101113.06;1739849;80;25347;-86
2023/01/07 08:33:39;;;;;;;52.50;28.62;;;;;;;5.67;100.00;101114.73;1749980;80;27629;-86
2023/01/07 08:36:08;;;;;;;46.42;27.60;;;;;;;5.68;100.00;101112.91;1779012;79;25808;-89
2023/01/07 08:38:35;;;;;;;47.80;29.63;;;;;;;5.68;100.00;101117.75;1776470;79;25308;-85
2023/01/07 08:41:01;;;;;;;50.12;28.52;;;;;;;5.69;100.00;101123.91;1759715;79;26534;-84
2023/01/07 08:43:29;;;;;;;53.30;28.70;;;;;;;5.71;100.00;101126.75;1756325;80;25920;-83
2023/01/07 08:45:56;;;;;;;51.05;30.70;;;;;;;5.74;100.00;101125.14;1765854;79;27482;-86
2023/01/07 08:48:22;;;;;;;55.65;30.60;;;;;;;5.76;100.00;101127.65;1753921;79;25905;-85
2023/01/07 08:50:51;;;;;;;52.25;27.27;;;;;;;5.78;100.00;101123.88;1818201;77;26203;-85
2023/01/07 08:53:22;;;;;;;46.37;25.68;;;;;;;5.80;100.00;101131.21;1811109;77;26651;-86
2023/01/07 08:55:49;;;;;;;51.80;25.62;;;;;;;5.81;100.00;101130.73;1821098;77;25723;-87
2023/01/07 08:58:15;;;;;;;47.62;26.27;;;;;;;5.80;100.00;101128.55;1806337;77;27505;-86
2023/01/07 09:00:41;;;;;;;44.00;24.65;;;;;;;5.83;100.00;101122.97;1827209;77;26435;-83
2023/01/07 09:03:08;;;;;;;45.48;26.45;;;;;;;5.84;100.00;101127.31;1811216;77;25560;-84
2023/01/07 09:05:36;;;;;;;50.45;26.62;;;;;;;5.82;100.00;101122.60;1810464;77;25982;-89
2023/01/07 09:08:05;;;;;;;49.48;28.75;;;;;;;5.82;100.00;101125.26;1814085;77;25288;-85
2023/01/07 09:10:31;;;;;;;44.60;25.65;;;;;;;5.83;100.00;101126.11;1824356;77;27443;-86
2023/01/07 09:12:57;;;;;;;47.10;26.17;;;;;;;5.82;100.00;101123.93;1814098;77;26173;-85
2023/01/07 09:15:24;;;;;;;49.23;27.60;;;;;;;5.83;100.00;101121.63;1833178;77;25805;-85
2023/01/07 09:17:50;;;;;;;50.83;26.52;;;;;;;5.85;100.00;101127.67;1822053;77;25917;-83
2023/01/07 09:20:19;;;;;;;47.15;27.30;;;;;;;5.91;100.00;101127.58;1827800;77;25768;-91
2023/01/07 09:22:45;;;;;;;49.38;25.43;;;;;;;5.93;100.00;101127.79;1817052;77;27854;-86
2023/01/07 09:25:12;;;;;;;45.73;26.60;;;;;;;5.97;100.00;101130.50;1840365;77;26314;-84
2023/01/07 09:27:38;;;;;;;49.88;27.70;;;;;;;6.00;100.00;101128.05;1827980;77;25831;-82
2023/01/07 09:30:06;;;;;;;49.80;28.12;;;;;;;6.01;100.00;101123.06;1830601;77;26119;-84
2023/01/07 09:32:33;;;;;;;50.35;26.10;;;;;;;6.03;100.00;101125.93;1818005;77;25937;-90
2023/01/07 09:35:17;;;;;;;;;;;;;;;;;;;;;
2023/01/07 09:38:01;;;;;;;;;;;;;;;;;;;;;
2023/01/07 09:43:23;;;;;;;;;;;;;;;;;;;;;
2023/01/07 09:45:54;;;;;;;46.03;26.63;;;;;;;6.07;100.00;101135.81;1674009;82;26501;-85
2023/01/07 09:48:36;;;;;;;50.35;27.87;;;;;;;6.08;100.00;101132.15;1701141;82;27458;-85
2023/01/07 09:51:28;;;;;;;48.73;27.60;;;;;;;6.10;100.00;101134.17;1707824;83;25923;-83
2023/01/07 09:53:59;;;;;;;49.75;28.40;;;;;;;6.09;100.00;101130.66;1760155;79;25319;-82
2023/01/07 09:56:27;;;;;;;;;;;;;;;6.13;100.00;101131.23;1787145;79;25758;-86
2023/01/07 10:01:51;;;;;;;50.08;26.87;;;;;;;6.15;100.00;101124.79;1795907;79;27508;-86
2023/01/07 10:04:40;;;;;;;51.73;27.73;;;;;;;6.18;100.00;101120.98;1775996;80;25889;-83
2023/01/07 10:07:45;;;;;;;49.80;28.42;;;;;;;6.21;100.00;101113.56;1796896;79;25829;-78
2023/01/07 10:10:26;;;;;;;51.63;28.65;;;;;;;6.26;100.00;101115.78;1734854;80;26201;-85
2023/01/07 10:12:58;;;;;;;45.88;26.15;;;;;;;6.30;100.00;101115.84;1831605;77;26012;-76
2023/01/07 10:15:54;;;;;;;51.10;26.75;;;;;;;6.35;100.00;101108.23;1813679;77;28226;-76
2023/01/07 10:18:49;;;;;;;47.90;25.15;;;;;;;6.39;100.00;101112.30;1808806;77;25785;-76
2023/01/07 10:21:38;;;;;;;48.23;28.05;;;;;;;6.40;100.00;101105.98;1810361;77;26083;-76
2023/01/07 10:24:26;;;;;;;45.00;26.73;;;;;;;6.41;100.00;101103.67;1810239;77;25778;-76
2023/01/07 10:27:03;;;;;;;51.15;28.95;;;;;;;6.45;100.00;101100.22;1811750;77;25526;-76
2023/01/07 10:29:53;;;;;;;44.08;25.80;;;;;;;6.47;100.00;101103.56;1814834;77;27493;-76
2023/01/07 10:32:22;;;;;;;83.72;46.85;;;;;;;6.45;100.00;101102.39;1814531;78;25908;-77
2023/01/07 10:34:55;;;;;;;84.52;49.38;;;;;;;6.45;100.00;101097.55;1792600;77;25942;-76
2023/01/07 10:37:33;;;;;;;45.92;28.65;;;;;;;6.47;100.00;101103.08;1822468;77;25956;-76
2023/01/07 10:40:20;;;;;;;49.30;29.52;;;;;;;6.46;100.00;101101.39;1799138;77;25690;-87
2023/01/07 10:43:30;;;;;;;44.18;26.37;;;;;;;6.47;100.00;101106.23;1817760;77;27935;-83
2023/01/07 10:46:16;;;;;;;55.48;32.63;;;;;;;6.44;100.00;101103.36;1811673;77;26415;-83
2023/01/07 10:48:54;;;;;;;41.98;25.02;;;;;;;6.45;100.00;101102.88;1817560;77;25815;-84
2023/01/07 10:51:48;;;;;;;52.98;30.90;;;;;;;6.45;100.00;101105.05;1829357;77;26416;-87
2023/01/07 10:54:51;;;;;;;46.35;27.52;;;;;;;6.45;100.00;101101.55;1825266;77;26345;-83
2023/01/07 10:57:22;;;;;;;46.02;28.40;;;;;;;6.46;100.00;101105.38;1761634;79;28283;-89
2023/01/07 10:59:51;;;;;;;56.15;30.72;;;;;;;6.47;100.00;101101.75;1830832;77;25979;-83
2023/01/07 11:02:21;;;;;;;41.83;23.52;;;;;;;6.47;100.00;101096.91;1827333;77;25957;-88
2023/01/07 11:04:48;;;;;;;;;;;;;;;6.46;100.00;101092.08;1819259;77;25874;-87
2023/01/07 11:07:32;;;;;;;47.27;26.80;;;;;;;6.49;100.00;101084.30;1818075;77;25269;-86
2023/01/07 11:10:03;;;;;;;43.23;25.20;;;;;;;6.47;100.00;101080.46;1817182;77;27484;-87
2023/01/07 11:12:43;;;;;;;;;;;;;;;6.50;100.00;101082.80;1820583;77;25652;-89
2023/01/07 11:15:39;;;;;;;49.38;32.45;;;;;;;6.54;100.00;101082.88;1745269;80;25347;-86
2023/01/07 11:18:33;;;;;;;50.43;28.17;;;;;;;6.55;100.00;101072.56;1820221;77;26654;-89
2023/01/07 11:21:02;;;;;;;42.78;24.05;;;;;;;6.56;100.00;101076.07;1806509;77;25769;-88
2023/01/07 11:26:26;;;;;;;;;;;;;;;;;;;;;
2023/01/07 11:29:36;;;;;;;;;;;;;;;;;;;;;
2023/01/07 11:32:54;;;;;;;;;;;;;;;;;;;;;
2023/01/07 11:35:01;;;;;;;;;;;;;;;;;;;;;
2023/01/07 11:37:51;;;;;;;;;;;;;;;;;;;;;
2023/01/07 11:40:50;;;;;;;;;;;;;;;;;;;;;
2023/01/07 11:44:15;;;;;;;42.93;24.18;;;;;;;6.55;100.00;101050.42;1424292;96;26118;-79
2023/01/07 11:49:55;;;;;;;;;;;;;;;;;;;;;
2023/01/07 11:52:32;;;;;;;;;;;;;;;;;;;;;
2023/01/07 11:54:53;;;;;;;46.10;23.80;;;;;;;6.59;100.00;101039.33;1375904;99;26051;-87
2023/01/07 11:57:24;;;;;;;40.90;23.83;;;;;;;6.58;100.00;101040.34;1597829;81;25896;-88
2023/01/07 12:00:05;;;;;;;38.75;21.87;;;;;;;6.58;100.00;101042.16;1758578;79;26134;-86
2023/01/07 12:02:31;;;;;;;40.10;21.62;;;;;;;6.55;100.00;101041.95;1781921;79;25841;-85
2023/01/07 12:05:23;;;;;;;38.10;24.25;;;;;;;6.54;100.00;101046.95;1771655;79;28415;-78